sensor_id;sensor_type;location;lat;lon;timestamp;P1;durP1;ratioP1;P2;durP2;ratioP2
23266;SDS011;11802;53.160;8.214;2023-04-06T00:00:47;19.03;;;12.67;;
23266;SDS011;11802;53.160;8.214;2023-04-06T00:03:13;16.40;;;11.53;;
23266;SDS011;11802;53.160;8.214;2023-04-06T00:05:39;19.97;;;12.13;;
23266;SDS011;11802;53.160;8.214;2023-04-06T00:08:05;23.07;;;12.03;;
23266;SDS011;11802;53.160;8.214;2023-04-06T00:10:31;17.93;;;11.93;;
23266;SDS011;11802;53.160;8.214;2023-04-06T00:12:57;17.63;;;11.37;;
23266;SDS011;11802;53.160;8.214;2023-04-06T00:15:23;20.40;;;13.57;;
23266;SDS011;11802;53.160;8.214;2023-04-06T00:17:49;18.20;;;13.03;;
23266;SDS011;11802;53.160;8.214;2023-04-06T00:20:15;18.60;;;12.63;;
23266;SDS011;11802;53.160;8.214;2023-04-06T00:22:41;19.27;;;13.80;;
23266;SDS011;11802;53.160;8.214;2023-04-06T00:25:06;19.73;;;13.27;;
23266;SDS011;11802;53.160;8.214;2023-04-06T00:27:33;21.40;;;13.13;;
23266;SDS011;11802;53.160;8.214;2023-04-06T00:29:58;20.07;;;13.50;;
23266;SDS011;11802;53.160;8.214;2023-04-06T00:32:24;21.50;;;12.33;;
23266;SDS011;11802;53.160;8.214;2023-04-06T00:34:49;18.87;;;12.43;;
23266;SDS011;11802;53.160;8.214;2023-04-06T00:37:15;19.67;;;13.77;;
23266;SDS011;11802;53.160;8.214;2023-04-06T00:39:41;20.80;;;13.77;;
23266;SDS011;11802;53.160;8.214;2023-04-06T00:42:12;22.10;;;14.40;;
23266;SDS011;11802;53.160;8.214;2023-04-06T00:44:38;22.67;;;13.97;;
23266;SDS011;11802;53.160;8.214;2023-04-06T00:47:05;21.60;;;14.07;;
23266;SDS011;11802;53.160;8.214;2023-04-06T00:49:31;23.80;;;14.23;;
23266;SDS011;11802;53.160;8.214;2023-04-06T00:51:57;20.27;;;14.33;;
23266;SDS011;11802;53.160;8.214;2023-04-06T00:54:23;20.97;;;14.73;;
23266;SDS011;11802;53.160;8.214;2023-04-06T00:56:48;24.03;;;15.50;;
23266;SDS011;11802;53.160;8.214;2023-04-06T00:59:14;23.47;;;14.13;;
23266;SDS011;11802;53.160;8.214;2023-04-06T01:01:39;22.43;;;15.40;;
23266;SDS011;11802;53.160;8.214;2023-04-06T01:04:05;26.63;;;16.87;;
23266;SDS011;11802;53.160;8.214;2023-04-06T01:06:30;24.97;;;15.70;;
23266;SDS011;11802;53.160;8.214;2023-04-06T01:08:56;26.20;;;15.10;;
23266;SDS011;11802;53.160;8.214;2023-04-06T01:11:22;26.93;;;16.83;;
23266;SDS011;11802;53.160;8.214;2023-04-06T01:13:47;24.03;;;16.13;;
23266;SDS011;11802;53.160;8.214;2023-04-06T01:16:13;24.33;;;14.70;;
23266;SDS011;11802;53.160;8.214;2023-04-06T01:18:39;22.43;;;15.53;;
23266;SDS011;11802;53.160;8.214;2023-04-06T01:21:05;24.23;;;15.43;;
23266;SDS011;11802;53.160;8.214;2023-04-06T01:23:30;22.47;;;16.17;;
23266;SDS011;11802;53.160;8.214;2023-04-06T01:25:56;23.57;;;16.13;;
23266;SDS011;11802;53.160;8.214;2023-04-06T01:28:21;27.83;;;17.20;;
23266;SDS011;11802;53.160;8.214;2023-04-06T01:30:47;26.23;;;16.13;;
23266;SDS011;11802;53.160;8.214;2023-04-06T01:33:12;26.27;;;16.93;;
23266;SDS011;11802;53.160;8.214;2023-04-06T01:35:38;24.83;;;17.67;;
23266;SDS011;11802;53.160;8.214;2023-04-06T01:38:04;32.83;;;19.67;;
23266;SDS011;11802;53.160;8.214;2023-04-06T01:40:30;29.30;;;18.70;;
23266;SDS011;11802;53.160;8.214;2023-04-06T01:42:55;29.23;;;18.10;;
23266;SDS011;11802;53.160;8.214;2023-04-06T01:45:22;26.63;;;17.10;;
23266;SDS011;11802;53.160;8.214;2023-04-06T01:47:48;28.30;;;18.80;;
23266;SDS011;11802;53.160;8.214;2023-04-06T01:50:13;26.83;;;17.83;;
23266;SDS011;11802;53.160;8.214;2023-04-06T01:52:39;29.47;;;19.20;;
23266;SDS011;11802;53.160;8.214;2023-04-06T01:55:05;26.67;;;17.20;;
23266;SDS011;11802;53.160;8.214;2023-04-06T01:57:31;30.60;;;20.23;;
23266;SDS011;11802;53.160;8.214;2023-04-06T01:59:57;29.70;;;20.30;;
23266;SDS011;11802;53.160;8.214;2023-04-06T02:02:22;32.27;;;20.73;;
23266;SDS011;11802;53.160;8.214;2023-04-06T02:04:48;32.50;;;21.17;;
23266;SDS011;11802;53.160;8.214;2023-04-06T02:07:14;30.60;;;19.90;;
23266;SDS011;11802;53.160;8.214;2023-04-06T02:09:40;32.43;;;20.97;;
23266;SDS011;11802;53.160;8.214;2023-04-06T02:12:05;34.03;;;21.77;;
23266;SDS011;11802;53.160;8.214;2023-04-06T02:14:31;34.23;;;21.07;;
23266;SDS011;11802;53.160;8.214;2023-04-06T02:16:57;32.80;;;22.23;;
23266;SDS011;11802;53.160;8.214;2023-04-06T02:19:23;31.73;;;20.97;;
23266;SDS011;11802;53.160;8.214;2023-04-06T02:21:48;31.03;;;20.33;;
23266;SDS011;11802;53.160;8.214;2023-04-06T02:24:14;32.37;;;20.20;;
23266;SDS011;11802;53.160;8.214;2023-04-06T02:26:39;33.80;;;20.90;;
23266;SDS011;11802;53.160;8.214;2023-04-06T02:29:05;35.33;;;21.70;;
23266;SDS011;11802;53.160;8.214;2023-04-06T02:31:32;32.17;;;20.83;;
23266;SDS011;11802;53.160;8.214;2023-04-06T02:33:57;30.77;;;19.43;;
23266;SDS011;11802;53.160;8.214;2023-04-06T02:36:23;29.63;;;20.70;;
23266;SDS011;11802;53.160;8.214;2023-04-06T02:38:48;32.70;;;21.33;;
23266;SDS011;11802;53.160;8.214;2023-04-06T02:41:14;31.07;;;20.83;;
23266;SDS011;11802;53.160;8.214;2023-04-06T02:43:40;31.73;;;20.57;;
23266;SDS011;11802;53.160;8.214;2023-04-06T02:46:05;31.73;;;20.07;;
23266;SDS011;11802;53.160;8.214;2023-04-06T02:48:31;32.33;;;20.43;;
23266;SDS011;11802;53.160;8.214;2023-04-06T02:50:56;33.37;;;22.53;;
23266;SDS011;11802;53.160;8.214;2023-04-06T02:53:22;30.87;;;19.50;;
23266;SDS011;11802;53.160;8.214;2023-04-06T02:55:47;33.03;;;20.47;;
23266;SDS011;11802;53.160;8.214;2023-04-06T02:58:13;33.83;;;20.00;;
23266;SDS011;11802;53.160;8.214;2023-04-06T03:00:38;29.93;;;19.93;;
23266;SDS011;11802;53.160;8.214;2023-04-06T03:03:04;33.33;;;21.23;;
23266;SDS011;11802;53.160;8.214;2023-04-06T03:05:31;35.73;;;21.57;;
23266;SDS011;11802;53.160;8.214;2023-04-06T03:07:56;30.63;;;19.73;;
23266;SDS011;11802;53.160;8.214;2023-04-06T03:10:22;37.10;;;21.23;;
23266;SDS011;11802;53.160;8.214;2023-04-06T03:12:47;30.83;;;20.70;;
23266;SDS011;11802;53.160;8.214;2023-04-06T03:15:13;32.63;;;20.83;;
23266;SDS011;11802;53.160;8.214;2023-04-06T03:17:39;31.67;;;20.70;;
23266;SDS011;11802;53.160;8.214;2023-04-06T03:20:04;35.23;;;20.47;;
23266;SDS011;11802;53.160;8.214;2023-04-06T03:22:30;33.00;;;19.30;;
23266;SDS011;11802;53.160;8.214;2023-04-06T03:24:56;31.00;;;19.90;;
23266;SDS011;11802;53.160;8.214;2023-04-06T03:27:21;30.83;;;20.37;;
23266;SDS011;11802;53.160;8.214;2023-04-06T03:29:47;29.03;;;18.87;;
23266;SDS011;11802;53.160;8.214;2023-04-06T03:32:12;31.90;;;19.87;;
23266;SDS011;11802;53.160;8.214;2023-04-06T03:34:38;32.30;;;20.47;;
23266;SDS011;11802;53.160;8.214;2023-04-06T03:37:04;29.33;;;19.47;;
23266;SDS011;11802;53.160;8.214;2023-04-06T03:39:30;28.97;;;20.33;;
23266;SDS011;11802;53.160;8.214;2023-04-06T03:41:55;31.73;;;19.43;;
23266;SDS011;11802;53.160;8.214;2023-04-06T03:44:21;29.43;;;19.33;;
23266;SDS011;11802;53.160;8.214;2023-04-06T03:46:46;32.70;;;19.43;;
23266;SDS011;11802;53.160;8.214;2023-04-06T03:49:12;32.50;;;19.93;;
23266;SDS011;11802;53.160;8.214;2023-04-06T03:51:37;31.57;;;20.37;;
23266;SDS011;11802;53.160;8.214;2023-04-06T03:54:03;34.37;;;20.40;;
23266;SDS011;11802;53.160;8.214;2023-04-06T03:56:29;30.80;;;20.53;;
23266;SDS011;11802;53.160;8.214;2023-04-06T03:58:54;33.03;;;21.17;;
23266;SDS011;11802;53.160;8.214;2023-04-06T04:01:20;30.30;;;20.63;;
23266;SDS011;11802;53.160;8.214;2023-04-06T04:03:46;30.43;;;20.50;;
23266;SDS011;11802;53.160;8.214;2023-04-06T04:06:11;32.03;;;20.97;;
23266;SDS011;11802;53.160;8.214;2023-04-06T04:08:37;32.80;;;20.83;;
23266;SDS011;11802;53.160;8.214;2023-04-06T04:11:02;33.53;;;20.93;;
23266;SDS011;11802;53.160;8.214;2023-04-06T04:13:28;33.07;;;21.20;;
23266;SDS011;11802;53.160;8.214;2023-04-06T04:15:53;33.47;;;20.93;;
23266;SDS011;11802;53.160;8.214;2023-04-06T04:18:19;34.60;;;22.00;;
23266;SDS011;11802;53.160;8.214;2023-04-06T04:20:44;34.07;;;21.53;;
23266;SDS011;11802;53.160;8.214;2023-04-06T04:23:10;31.37;;;20.80;;
23266;SDS011;11802;53.160;8.214;2023-04-06T04:25:36;32.00;;;21.17;;
23266;SDS011;11802;53.160;8.214;2023-04-06T04:28:01;33.30;;;21.40;;
23266;SDS011;11802;53.160;8.214;2023-04-06T04:30:27;31.90;;;20.73;;
23266;SDS011;11802;53.160;8.214;2023-04-06T04:32:53;33.97;;;21.37;;
23266;SDS011;11802;53.160;8.214;2023-04-06T04:35:19;31.67;;;19.97;;
23266;SDS011;11802;53.160;8.214;2023-04-06T04:37:44;30.43;;;19.53;;
23266;SDS011;11802;53.160;8.214;2023-04-06T04:40:10;29.17;;;18.83;;
23266;SDS011;11802;53.160;8.214;2023-04-06T04:42:36;30.90;;;19.77;;
23266;SDS011;11802;53.160;8.214;2023-04-06T04:45:02;29.63;;;18.93;;
23266;SDS011;11802;53.160;8.214;2023-04-06T04:47:27;30.40;;;19.23;;
23266;SDS011;11802;53.160;8.214;2023-04-06T04:49:53;31.30;;;19.77;;
23266;SDS011;11802;53.160;8.214;2023-04-06T04:52:18;27.47;;;18.43;;
23266;SDS011;11802;53.160;8.214;2023-04-06T04:54:44;29.77;;;18.97;;
23266;SDS011;11802;53.160;8.214;2023-04-06T04:57:11;27.47;;;18.60;;
23266;SDS011;11802;53.160;8.214;2023-04-06T04:59:37;27.80;;;17.70;;
23266;SDS011;11802;53.160;8.214;2023-04-06T05:02:03;34.27;;;20.00;;
23266;SDS011;11802;53.160;8.214;2023-04-06T05:04:28;30.13;;;19.37;;
23266;SDS011;11802;53.160;8.214;2023-04-06T05:07:02;29.20;;;19.13;;
23266;SDS011;11802;53.160;8.214;2023-04-06T05:09:31;28.70;;;18.50;;
23266;SDS011;11802;53.160;8.214;2023-04-06T05:11:57;25.67;;;18.10;;
23266;SDS011;11802;53.160;8.214;2023-04-06T05:14:23;27.30;;;17.23;;
23266;SDS011;11802;53.160;8.214;2023-04-06T05:16:49;26.00;;;17.60;;
23266;SDS011;11802;53.160;8.214;2023-04-06T05:19:15;25.47;;;16.47;;
23266;SDS011;11802;53.160;8.214;2023-04-06T05:21:41;24.10;;;15.67;;
23266;SDS011;11802;53.160;8.214;2023-04-06T05:24:06;20.97;;;14.07;;
23266;SDS011;11802;53.160;8.214;2023-04-06T05:26:32;23.27;;;14.60;;
23266;SDS011;11802;53.160;8.214;2023-04-06T05:28:57;26.00;;;14.33;;
23266;SDS011;11802;53.160;8.214;2023-04-06T05:31:23;21.20;;;13.50;;
23266;SDS011;11802;53.160;8.214;2023-04-06T05:33:49;19.03;;;13.63;;
23266;SDS011;11802;53.160;8.214;2023-04-06T05:36:14;19.33;;;13.47;;
23266;SDS011;11802;53.160;8.214;2023-04-06T05:38:40;20.90;;;11.83;;
23266;SDS011;11802;53.160;8.214;2023-04-06T05:41:05;21.17;;;12.20;;
23266;SDS011;11802;53.160;8.214;2023-04-06T05:43:31;16.33;;;11.60;;
23266;SDS011;11802;53.160;8.214;2023-04-06T05:45:56;18.43;;;11.63;;
23266;SDS011;11802;53.160;8.214;2023-04-06T05:48:22;18.33;;;11.53;;
23266;SDS011;11802;53.160;8.214;2023-04-06T05:50:50;17.63;;;11.53;;
23266;SDS011;11802;53.160;8.214;2023-04-06T05:53:16;15.57;;;10.70;;
23266;SDS011;11802;53.160;8.214;2023-04-06T05:55:42;17.00;;;10.57;;
23266;SDS011;11802;53.160;8.214;2023-04-06T05:58:07;15.00;;;10.90;;
23266;SDS011;11802;53.160;8.214;2023-04-06T06:00:33;17.73;;;10.60;;
23266;SDS011;11802;53.160;8.214;2023-04-06T06:02:59;15.13;;;10.90;;
23266;SDS011;11802;53.160;8.214;2023-04-06T06:05:24;14.50;;;10.20;;
23266;SDS011;11802;53.160;8.214;2023-04-06T06:07:50;19.57;;;10.53;;
23266;SDS011;11802;53.160;8.214;2023-04-06T06:10:16;17.13;;;11.33;;
23266;SDS011;11802;53.160;8.214;2023-04-06T06:12:41;15.30;;;10.43;;
23266;SDS011;11802;53.160;8.214;2023-04-06T06:15:07;14.90;;;10.00;;
23266;SDS011;11802;53.160;8.214;2023-04-06T06:17:33;14.93;;;9.97;;
23266;SDS011;11802;53.160;8.214;2023-04-06T06:19:58;14.07;;;9.47;;
23266;SDS011;11802;53.160;8.214;2023-04-06T06:22:24;15.60;;;10.23;;
23266;SDS011;11802;53.160;8.214;2023-04-06T06:24:49;17.43;;;9.03;;
23266;SDS011;11802;53.160;8.214;2023-04-06T06:27:15;16.57;;;9.00;;
23266;SDS011;11802;53.160;8.214;2023-04-06T06:29:41;14.97;;;9.60;;
23266;SDS011;11802;53.160;8.214;2023-04-06T06:32:06;14.93;;;9.67;;
23266;SDS011;11802;53.160;8.214;2023-04-06T06:34:34;14.77;;;9.23;;
23266;SDS011;11802;53.160;8.214;2023-04-06T06:37:01;18.77;;;8.50;;
23266;SDS011;11802;53.160;8.214;2023-04-06T06:39:27;12.90;;;8.53;;
23266;SDS011;11802;53.160;8.214;2023-04-06T06:41:52;11.83;;;8.07;;
23266;SDS011;11802;53.160;8.214;2023-04-06T06:44:19;13.07;;;8.60;;
23266;SDS011;11802;53.160;8.214;2023-04-06T06:46:46;12.57;;;7.45;;
23266;SDS011;11802;53.160;8.214;2023-04-06T06:49:12;10.95;;;8.07;;
23266;SDS011;11802;53.160;8.214;2023-04-06T06:51:39;12.05;;;7.50;;
23266;SDS011;11802;53.160;8.214;2023-04-06T06:54:05;13.15;;;8.38;;
23266;SDS011;11802;53.160;8.214;2023-04-06T06:56:30;12.13;;;7.40;;
23266;SDS011;11802;53.160;8.214;2023-04-06T06:58:56;11.13;;;7.85;;
23266;SDS011;11802;53.160;8.214;2023-04-06T07:01:21;11.60;;;7.47;;
23266;SDS011;11802;53.160;8.214;2023-04-06T07:03:47;9.75;;;7.78;;
23266;SDS011;11802;53.160;8.214;2023-04-06T07:06:12;12.35;;;7.53;;
23266;SDS011;11802;53.160;8.214;2023-04-06T07:08:38;9.93;;;7.70;;
23266;SDS011;11802;53.160;8.214;2023-04-06T07:11:03;11.18;;;7.80;;
23266;SDS011;11802;53.160;8.214;2023-04-06T07:13:29;14.00;;;7.93;;
23266;SDS011;11802;53.160;8.214;2023-04-06T07:15:55;12.00;;;7.70;;
23266;SDS011;11802;53.160;8.214;2023-04-06T07:18:20;12.40;;;7.47;;
23266;SDS011;11802;53.160;8.214;2023-04-06T07:20:47;10.05;;;6.97;;
23266;SDS011;11802;53.160;8.214;2023-04-06T07:23:12;14.15;;;7.40;;
23266;SDS011;11802;53.160;8.214;2023-04-06T07:25:38;9.55;;;7.55;;
23266;SDS011;11802;53.160;8.214;2023-04-06T07:28:04;12.05;;;7.78;;
23266;SDS011;11802;53.160;8.214;2023-04-06T07:30:30;11.05;;;6.63;;
23266;SDS011;11802;53.160;8.214;2023-04-06T07:32:55;10.23;;;7.18;;
23266;SDS011;11802;53.160;8.214;2023-04-06T07:35:24;9.95;;;7.32;;
23266;SDS011;11802;53.160;8.214;2023-04-06T07:37:51;12.45;;;7.75;;
23266;SDS011;11802;53.160;8.214;2023-04-06T07:40:17;12.15;;;7.88;;
23266;SDS011;11802;53.160;8.214;2023-04-06T07:42:44;10.75;;;7.55;;
23266;SDS011;11802;53.160;8.214;2023-04-06T07:45:10;9.40;;;7.07;;
23266;SDS011;11802;53.160;8.214;2023-04-06T07:47:35;11.48;;;7.38;;
23266;SDS011;11802;53.160;8.214;2023-04-06T07:50:01;10.82;;;6.53;;
23266;SDS011;11802;53.160;8.214;2023-04-06T07:52:27;15.10;;;7.35;;
23266;SDS011;11802;53.160;8.214;2023-04-06T07:54:52;9.45;;;6.78;;
23266;SDS011;11802;53.160;8.214;2023-04-06T07:57:18;10.50;;;6.93;;
23266;SDS011;11802;53.160;8.214;2023-04-06T07:59:43;10.48;;;6.20;;
23266;SDS011;11802;53.160;8.214;2023-04-06T08:02:09;9.55;;;6.22;;
23266;SDS011;11802;53.160;8.214;2023-04-06T08:04:35;9.10;;;6.45;;
23266;SDS011;11802;53.160;8.214;2023-04-06T08:07:01;12.13;;;6.63;;
23266;SDS011;11802;53.160;8.214;2023-04-06T08:09:26;9.43;;;7.50;;
23266;SDS011;11802;53.160;8.214;2023-04-06T08:11:52;10.52;;;5.90;;
23266;SDS011;11802;53.160;8.214;2023-04-06T08:14:18;9.98;;;6.97;;
23266;SDS011;11802;53.160;8.214;2023-04-06T08:16:43;8.82;;;6.65;;
23266;SDS011;11802;53.160;8.214;2023-04-06T08:19:09;11.95;;;6.45;;
23266;SDS011;11802;53.160;8.214;2023-04-06T08:21:36;9.35;;;6.15;;
23266;SDS011;11802;53.160;8.214;2023-04-06T08:24:01;11.80;;;6.68;;
23266;SDS011;11802;53.160;8.214;2023-04-06T08:26:27;8.93;;;6.47;;
23266;SDS011;11802;53.160;8.214;2023-04-06T08:28:53;11.75;;;6.53;;
23266;SDS011;11802;53.160;8.214;2023-04-06T08:31:18;9.80;;;6.90;;
23266;SDS011;11802;53.160;8.214;2023-04-06T08:33:44;9.07;;;6.35;;
23266;SDS011;11802;53.160;8.214;2023-04-06T08:36:12;7.93;;;5.97;;
23266;SDS011;11802;53.160;8.214;2023-04-06T08:38:40;8.68;;;6.68;;
23266;SDS011;11802;53.160;8.214;2023-04-06T08:41:09;9.65;;;6.50;;
23266;SDS011;11802;53.160;8.214;2023-04-06T08:43:58;9.80;;;6.40;;
23266;SDS011;11802;53.160;8.214;2023-04-06T08:46:26;12.18;;;6.90;;
23266;SDS011;11802;53.160;8.214;2023-04-06T08:49:00;11.82;;;7.07;;
23266;SDS011;11802;53.160;8.214;2023-04-06T08:51:27;10.50;;;5.90;;
23266;SDS011;11802;53.160;8.214;2023-04-06T08:53:54;9.52;;;6.35;;
23266;SDS011;11802;53.160;8.214;2023-04-06T08:56:21;9.88;;;6.72;;
23266;SDS011;11802;53.160;8.214;2023-04-06T08:58:48;8.68;;;6.35;;
23266;SDS011;11802;53.160;8.214;2023-04-06T09:01:14;11.48;;;6.45;;
23266;SDS011;11802;53.160;8.214;2023-04-06T09:03:42;9.23;;;6.38;;
23266;SDS011;11802;53.160;8.214;2023-04-06T09:06:09;7.72;;;5.93;;
23266;SDS011;11802;53.160;8.214;2023-04-06T09:08:39;8.00;;;6.35;;
23266;SDS011;11802;53.160;8.214;2023-04-06T09:11:06;10.40;;;7.22;;
23266;SDS011;11802;53.160;8.214;2023-04-06T09:13:43;11.40;;;6.60;;
23266;SDS011;11802;53.160;8.214;2023-04-06T09:16:10;11.02;;;7.00;;
23266;SDS011;11802;53.160;8.214;2023-04-06T09:18:37;8.93;;;6.95;;
23266;SDS011;11802;53.160;8.214;2023-04-06T09:21:04;10.80;;;6.63;;
23266;SDS011;11802;53.160;8.214;2023-04-06T09:23:30;10.18;;;7.00;;
23266;SDS011;11802;53.160;8.214;2023-04-06T09:28:51;9.23;;;6.70;;
23266;SDS011;11802;53.160;8.214;2023-04-06T09:31:25;12.20;;;7.63;;
23266;SDS011;11802;53.160;8.214;2023-04-06T09:33:55;8.93;;;7.03;;
23266;SDS011;11802;53.160;8.214;2023-04-06T09:36:32;11.50;;;7.70;;
23266;SDS011;11802;53.160;8.214;2023-04-06T09:38:59;11.07;;;7.15;;
23266;SDS011;11802;53.160;8.214;2023-04-06T09:44:13;10.95;;;7.60;;
23266;SDS011;11802;53.160;8.214;2023-04-06T09:46:42;10.75;;;7.88;;
23266;SDS011;11802;53.160;8.214;2023-04-06T09:49:10;12.85;;;7.63;;
23266;SDS011;11802;53.160;8.214;2023-04-06T09:52:18;11.32;;;7.93;;
23266;SDS011;11802;53.160;8.214;2023-04-06T09:54:28;11.60;;;8.07;;
23266;SDS011;11802;53.160;8.214;2023-04-06T10:02:14;13.45;;;8.55;;
23266;SDS011;11802;53.160;8.214;2023-04-06T10:04:53;11.07;;;8.52;;
23266;SDS011;11802;53.160;8.214;2023-04-06T10:07:23;11.98;;;8.38;;
23266;SDS011;11802;53.160;8.214;2023-04-06T10:09:51;13.15;;;8.30;;
23266;SDS011;11802;53.160;8.214;2023-04-06T10:12:19;11.98;;;8.95;;
23266;SDS011;11802;53.160;8.214;2023-04-06T10:14:45;13.30;;;9.10;;
23266;SDS011;11802;53.160;8.214;2023-04-06T10:17:10;13.90;;;8.93;;
23266;SDS011;11802;53.160;8.214;2023-04-06T10:25:27;13.10;;;9.13;;
23266;SDS011;11802;53.160;8.214;2023-04-06T10:28:06;12.07;;;8.97;;
23266;SDS011;11802;53.160;8.214;2023-04-06T10:30:33;13.88;;;10.27;;
23266;SDS011;11802;53.160;8.214;2023-04-06T10:33:00;15.27;;;10.60;;
23266;SDS011;11802;53.160;8.214;2023-04-06T10:35:36;15.68;;;10.77;;
23266;SDS011;11802;53.160;8.214;2023-04-06T10:38:03;18.17;;;11.40;;
23266;SDS011;11802;53.160;8.214;2023-04-06T10:40:29;13.77;;;10.35;;
23266;SDS011;11802;53.160;8.214;2023-04-06T10:43:06;13.95;;;10.70;;
23266;SDS011;11802;53.160;8.214;2023-04-06T10:45:39;14.27;;;10.57;;
23266;SDS011;11802;53.160;8.214;2023-04-06T10:48:18;15.45;;;11.35;;
23266;SDS011;11802;53.160;8.214;2023-04-06T10:50:47;15.40;;;11.30;;
23266;SDS011;11802;53.160;8.214;2023-04-06T10:53:25;15.38;;;10.90;;
23266;SDS011;11802;53.160;8.214;2023-04-06T10:55:51;19.42;;;10.52;;
23266;SDS011;11802;53.160;8.214;2023-04-06T10:58:19;14.23;;;10.57;;
23266;SDS011;11802;53.160;8.214;2023-04-06T11:00:45;12.80;;;9.88;;
23266;SDS011;11802;53.160;8.214;2023-04-06T11:03:12;13.23;;;9.48;;
23266;SDS011;11802;53.160;8.214;2023-04-06T11:05:38;15.82;;;9.70;;
23266;SDS011;11802;53.160;8.214;2023-04-06T11:08:08;15.25;;;10.73;;
23266;SDS011;11802;53.160;8.214;2023-04-06T11:10:33;15.52;;;10.25;;
23266;SDS011;11802;53.160;8.214;2023-04-06T11:12:59;13.57;;;9.57;;
23266;SDS011;11802;53.160;8.214;2023-04-06T11:15:24;15.05;;;10.77;;
23266;SDS011;11802;53.160;8.214;2023-04-06T11:17:50;13.75;;;9.48;;
23266;SDS011;11802;53.160;8.214;2023-04-06T11:20:16;14.80;;;10.55;;
23266;SDS011;11802;53.160;8.214;2023-04-06T11:22:49;13.25;;;9.88;;
23266;SDS011;11802;53.160;8.214;2023-04-06T11:25:18;13.20;;;9.98;;
23266;SDS011;11802;53.160;8.214;2023-04-06T11:27:44;12.85;;;8.80;;
23266;SDS011;11802;53.160;8.214;2023-04-06T11:30:11;12.60;;;9.10;;
23266;SDS011;11802;53.160;8.214;2023-04-06T11:32:44;13.25;;;8.98;;
23266;SDS011;11802;53.160;8.214;2023-04-06T11:35:20;14.48;;;9.02;;
23266;SDS011;11802;53.160;8.214;2023-04-06T11:37:48;14.00;;;9.93;;
23266;SDS011;11802;53.160;8.214;2023-04-06T11:40:14;13.05;;;9.45;;
23266;SDS011;11802;53.160;8.214;2023-04-06T11:42:40;12.70;;;9.75;;
23266;SDS011;11802;53.160;8.214;2023-04-06T11:45:07;14.35;;;9.52;;
23266;SDS011;11802;53.160;8.214;2023-04-06T11:47:34;12.38;;;9.32;;
23266;SDS011;11802;53.160;8.214;2023-04-06T11:50:11;14.45;;;10.68;;
23266;SDS011;11802;53.160;8.214;2023-04-06T11:52:39;17.98;;;11.00;;
23266;SDS011;11802;53.160;8.214;2023-04-06T11:55:12;15.35;;;11.05;;
23266;SDS011;11802;53.160;8.214;2023-04-06T11:57:39;15.23;;;11.10;;
23266;SDS011;11802;53.160;8.214;2023-04-06T12:00:06;15.95;;;11.82;;
23266;SDS011;11802;53.160;8.214;2023-04-06T12:02:34;18.70;;;13.63;;
23266;SDS011;11802;53.160;8.214;2023-04-06T12:05:01;17.75;;;13.90;;
23266;SDS011;11802;53.160;8.214;2023-04-06T12:07:27;24.33;;;16.50;;
23266;SDS011;11802;53.160;8.214;2023-04-06T12:09:54;19.10;;;15.00;;
23266;SDS011;11802;53.160;8.214;2023-04-06T12:12:20;21.85;;;16.52;;
23266;SDS011;11802;53.160;8.214;2023-04-06T12:14:45;24.05;;;15.75;;
23266;SDS011;11802;53.160;8.214;2023-04-06T12:17:11;19.13;;;14.45;;
23266;SDS011;11802;53.160;8.214;2023-04-06T12:19:36;20.05;;;14.02;;
23266;SDS011;11802;53.160;8.214;2023-04-06T12:22:02;19.80;;;14.30;;
23266;SDS011;11802;53.160;8.214;2023-04-06T12:24:28;20.02;;;14.00;;
23266;SDS011;11802;53.160;8.214;2023-04-06T12:26:54;20.55;;;13.40;;
23266;SDS011;11802;53.160;8.214;2023-04-06T12:29:19;17.67;;;13.02;;
23266;SDS011;11802;53.160;8.214;2023-04-06T12:31:45;17.98;;;13.45;;
23266;SDS011;11802;53.160;8.214;2023-04-06T12:34:11;17.25;;;13.25;;
23266;SDS011;11802;53.160;8.214;2023-04-06T12:36:37;16.63;;;12.80;;
23266;SDS011;11802;53.160;8.214;2023-04-06T12:39:04;17.30;;;11.77;;
23266;SDS011;11802;53.160;8.214;2023-04-06T12:41:30;19.40;;;13.02;;
23266;SDS011;11802;53.160;8.214;2023-04-06T12:43:56;18.27;;;13.25;;
23266;SDS011;11802;53.160;8.214;2023-04-06T12:46:21;17.23;;;12.48;;
23266;SDS011;11802;53.160;8.214;2023-04-06T12:48:48;18.10;;;12.77;;
23266;SDS011;11802;53.160;8.214;2023-04-06T12:51:13;16.95;;;12.32;;
23266;SDS011;11802;53.160;8.214;2023-04-06T12:53:39;19.45;;;12.90;;
23266;SDS011;11802;53.160;8.214;2023-04-06T12:56:15;17.83;;;12.57;;
23266;SDS011;11802;53.160;8.214;2023-04-06T12:58:42;17.85;;;12.18;;
23266;SDS011;11802;53.160;8.214;2023-04-06T13:01:09;15.65;;;12.20;;
23266;SDS011;11802;53.160;8.214;2023-04-06T13:03:36;17.80;;;11.48;;
23266;SDS011;11802;53.160;8.214;2023-04-06T13:06:02;17.17;;;11.80;;
23266;SDS011;11802;53.160;8.214;2023-04-06T13:08:27;17.05;;;11.98;;
23266;SDS011;11802;53.160;8.214;2023-04-06T13:10:53;16.50;;;12.25;;
23266;SDS011;11802;53.160;8.214;2023-04-06T13:13:23;16.52;;;11.50;;
23266;SDS011;11802;53.160;8.214;2023-04-06T13:15:50;16.80;;;11.93;;
23266;SDS011;11802;53.160;8.214;2023-04-06T13:18:20;16.70;;;11.48;;
23266;SDS011;11802;53.160;8.214;2023-04-06T13:20:48;16.63;;;10.52;;
23266;SDS011;11802;53.160;8.214;2023-04-06T13:23:13;15.70;;;10.73;;
23266;SDS011;11802;53.160;8.214;2023-04-06T13:25:39;16.20;;;11.77;;
23266;SDS011;11802;53.160;8.214;2023-04-06T13:28:05;16.20;;;10.77;;
23266;SDS011;11802;53.160;8.214;2023-04-06T13:30:30;19.00;;;11.45;;
23266;SDS011;11802;53.160;8.214;2023-04-06T13:32:56;16.67;;;11.23;;
23266;SDS011;11802;53.160;8.214;2023-04-06T13:35:21;19.98;;;10.90;;
23266;SDS011;11802;53.160;8.214;2023-04-06T13:37:47;15.70;;;10.90;;
23266;SDS011;11802;53.160;8.214;2023-04-06T13:40:13;16.73;;;10.25;;
23266;SDS011;11802;53.160;8.214;2023-04-06T13:42:39;14.60;;;10.75;;
23266;SDS011;11802;53.160;8.214;2023-04-06T13:45:06;16.38;;;11.10;;
23266;SDS011;11802;53.160;8.214;2023-04-06T13:47:32;17.00;;;12.10;;
23266;SDS011;11802;53.160;8.214;2023-04-06T13:49:57;17.27;;;11.40;;
23266;SDS011;11802;53.160;8.214;2023-04-06T13:52:23;17.27;;;11.00;;
23266;SDS011;11802;53.160;8.214;2023-04-06T13:54:49;17.30;;;11.53;;
23266;SDS011;11802;53.160;8.214;2023-04-06T13:57:15;15.60;;;11.37;;
23266;SDS011;11802;53.160;8.214;2023-04-06T13:59:40;16.53;;;11.90;;
23266;SDS011;11802;53.160;8.214;2023-04-06T14:02:07;15.90;;;11.25;;
23266;SDS011;11802;53.160;8.214;2023-04-06T14:04:34;16.45;;;11.30;;
23266;SDS011;11802;53.160;8.214;2023-04-06T14:07:00;17.23;;;11.10;;
23266;SDS011;11802;53.160;8.214;2023-04-06T14:09:26;15.80;;;10.75;;
23266;SDS011;11802;53.160;8.214;2023-04-06T14:11:52;16.48;;;11.40;;
23266;SDS011;11802;53.160;8.214;2023-04-06T14:14:18;16.53;;;11.40;;
23266;SDS011;11802;53.160;8.214;2023-04-06T14:16:44;19.65;;;10.73;;
23266;SDS011;11802;53.160;8.214;2023-04-06T14:19:10;21.20;;;13.35;;
23266;SDS011;11802;53.160;8.214;2023-04-06T14:21:40;17.08;;;12.40;;
23266;SDS011;11802;53.160;8.214;2023-04-06T14:24:06;18.05;;;11.98;;
23266;SDS011;11802;53.160;8.214;2023-04-06T14:26:33;16.63;;;11.02;;
23266;SDS011;11802;53.160;8.214;2023-04-06T14:29:02;13.52;;;10.30;;
23266;SDS011;11802;53.160;8.214;2023-04-06T14:31:29;16.25;;;11.18;;
23266;SDS011;11802;53.160;8.214;2023-04-06T14:33:55;18.95;;;12.57;;
23266;SDS011;11802;53.160;8.214;2023-04-06T14:36:21;16.67;;;11.65;;
23266;SDS011;11802;53.160;8.214;2023-04-06T14:38:46;19.35;;;11.70;;